3°C Temp
1°C Dewpoint
% Humidity
Temperature
8 KM/H
5 MPH
4 KTS
280°
Due West

Wind Speed
Clear
Conditions
Pressure 1022.92 (hPa) - 30.21 (in)
Visibility 6.2 (mi) - 10.0 (km)

Current Conditions
EHLW
Location 6km (3.2mi)
Metar :EHLW 182325Z AUTO 28004KT 230V290 9999 NCD 03/01 Q1023 BLU
Tue 19th March 00:25 am

Airport
  Metar Aviation API Data Provided by https://www.checkwx.com/ PHP scripts by weather34.com ©2019